sensor_id;sensor_type;location;lat;lon;timestamp;P1;durP1;ratioP1;P2;durP2;ratioP2
29370;SDS011;16357;52.188;7.838;2023-04-01T00:01:01;4.28;;;2.30;;
29370;SDS011;16357;52.188;7.838;2023-04-01T00:03:28;6.38;;;2.50;;
29370;SDS011;16357;52.188;7.838;2023-04-01T00:05:56;4.07;;;2.25;;
29370;SDS011;16357;52.188;7.838;2023-04-01T00:08:23;3.63;;;2.15;;
29370;SDS011;16357;52.188;7.838;2023-04-01T00:10:50;4.43;;;2.00;;
29370;SDS011;16357;52.188;7.838;2023-04-01T00:13:17;4.15;;;1.80;;
29370;SDS011;16357;52.188;7.838;2023-04-01T00:15:43;5.07;;;2.22;;
29370;SDS011;16357;52.188;7.838;2023-04-01T00:18:10;4.38;;;1.98;;
29370;SDS011;16357;52.188;7.838;2023-04-01T00:20:37;4.10;;;1.85;;
29370;SDS011;16357;52.188;7.838;2023-04-01T00:23:04;3.83;;;1.70;;
29370;SDS011;16357;52.188;7.838;2023-04-01T00:25:31;4.43;;;1.90;;
29370;SDS011;16357;52.188;7.838;2023-04-01T00:27:58;3.10;;;1.95;;
29370;SDS011;16357;52.188;7.838;2023-04-01T00:30:24;5.30;;;2.00;;
29370;SDS011;16357;52.188;7.838;2023-04-01T00:32:51;3.85;;;1.75;;
29370;SDS011;16357;52.188;7.838;2023-04-01T00:35:19;3.05;;;1.92;;
29370;SDS011;16357;52.188;7.838;2023-04-01T00:37:45;3.83;;;1.98;;
29370;SDS011;16357;52.188;7.838;2023-04-01T00:43:12;5.85;;;2.63;;
29370;SDS011;16357;52.188;7.838;2023-04-01T00:45:40;4.88;;;2.35;;
29370;SDS011;16357;52.188;7.838;2023-04-01T00:48:10;4.72;;;2.13;;
29370;SDS011;16357;52.188;7.838;2023-04-01T00:50:39;2.88;;;2.08;;
29370;SDS011;16357;52.188;7.838;2023-04-01T00:53:08;5.43;;;2.55;;
29370;SDS011;16357;52.188;7.838;2023-04-01T00:55:36;5.82;;;2.58;;
29370;SDS011;16357;52.188;7.838;2023-04-01T00:58:09;5.82;;;2.33;;
29370;SDS011;16357;52.188;7.838;2023-04-01T01:00:39;4.72;;;2.28;;
29370;SDS011;16357;52.188;7.838;2023-04-01T01:03:06;3.58;;;2.35;;
29370;SDS011;16357;52.188;7.838;2023-04-01T01:06:19;5.32;;;2.15;;
29370;SDS011;16357;52.188;7.838;2023-04-01T01:08:31;3.78;;;2.63;;
29370;SDS011;16357;52.188;7.838;2023-04-01T01:10:59;4.97;;;2.70;;
29370;SDS011;16357;52.188;7.838;2023-04-01T01:13:34;3.80;;;2.72;;
29370;SDS011;16357;52.188;7.838;2023-04-01T01:22:30;4.38;;;2.78;;
29370;SDS011;16357;52.188;7.838;2023-04-01T01:25:11;4.50;;;2.78;;
29370;SDS011;16357;52.188;7.838;2023-04-01T01:27:49;3.78;;;2.88;;
29370;SDS011;16357;52.188;7.838;2023-04-01T01:30:37;3.80;;;2.47;;
29370;SDS011;16357;52.188;7.838;2023-04-01T01:33:12;5.55;;;2.88;;
29370;SDS011;16357;52.188;7.838;2023-04-01T01:35:51;3.38;;;2.97;;
29370;SDS011;16357;52.188;7.838;2023-04-01T01:38:24;4.40;;;2.70;;
29370;SDS011;16357;52.188;7.838;2023-04-01T01:40:54;5.60;;;2.67;;
29370;SDS011;16357;52.188;7.838;2023-04-01T01:43:24;3.70;;;2.70;;
29370;SDS011;16357;52.188;7.838;2023-04-01T01:45:57;3.45;;;2.58;;
29370;SDS011;16357;52.188;7.838;2023-04-01T01:48:26;4.35;;;2.80;;
29370;SDS011;16357;52.188;7.838;2023-04-01T01:50:55;3.47;;;2.65;;
29370;SDS011;16357;52.188;7.838;2023-04-01T01:53:22;5.60;;;3.13;;
29370;SDS011;16357;52.188;7.838;2023-04-01T01:55:48;5.10;;;3.00;;
29370;SDS011;16357;52.188;7.838;2023-04-01T01:58:32;5.07;;;2.88;;
29370;SDS011;16357;52.188;7.838;2023-04-01T02:01:07;4.95;;;2.90;;
29370;SDS011;16357;52.188;7.838;2023-04-01T02:03:38;3.55;;;2.80;;
29370;SDS011;16357;52.188;7.838;2023-04-01T02:06:07;6.10;;;3.20;;
29370;SDS011;16357;52.188;7.838;2023-04-01T02:08:39;3.70;;;2.92;;
29370;SDS011;16357;52.188;7.838;2023-04-01T02:11:11;5.45;;;3.15;;
29370;SDS011;16357;52.188;7.838;2023-04-01T02:16:38;3.90;;;2.45;;
29370;SDS011;16357;52.188;7.838;2023-04-01T02:19:09;3.85;;;2.92;;
29370;SDS011;16357;52.188;7.838;2023-04-01T02:21:38;5.05;;;2.80;;
29370;SDS011;16357;52.188;7.838;2023-04-01T02:24:08;3.53;;;2.70;;
29370;SDS011;16357;52.188;7.838;2023-04-01T02:26:39;3.75;;;2.65;;
29370;SDS011;16357;52.188;7.838;2023-04-01T02:29:07;5.18;;;2.60;;
29370;SDS011;16357;52.188;7.838;2023-04-01T02:31:37;3.63;;;2.60;;
29370;SDS011;16357;52.188;7.838;2023-04-01T02:34:04;3.30;;;2.35;;
29370;SDS011;16357;52.188;7.838;2023-04-01T02:36:31;3.40;;;2.50;;
29370;SDS011;16357;52.188;7.838;2023-04-01T02:38:58;3.30;;;2.42;;
29370;SDS011;16357;52.188;7.838;2023-04-01T02:41:30;3.15;;;2.47;;
29370;SDS011;16357;52.188;7.838;2023-04-01T02:43:56;3.28;;;2.22;;
29370;SDS011;16357;52.188;7.838;2023-04-01T02:46:24;3.83;;;2.25;;
29370;SDS011;16357;52.188;7.838;2023-04-01T02:48:51;4.43;;;2.42;;
29370;SDS011;16357;52.188;7.838;2023-04-01T02:51:17;2.65;;;2.38;;
29370;SDS011;16357;52.188;7.838;2023-04-01T02:53:44;2.75;;;2.33;;
29370;SDS011;16357;52.188;7.838;2023-04-01T02:56:10;2.97;;;2.40;;
29370;SDS011;16357;52.188;7.838;2023-04-01T02:58:37;2.53;;;2.33;;
29370;SDS011;16357;52.188;7.838;2023-04-01T03:01:03;2.92;;;2.47;;
29370;SDS011;16357;52.188;7.838;2023-04-01T03:03:29;3.20;;;2.40;;
29370;SDS011;16357;52.188;7.838;2023-04-01T03:05:56;2.50;;;2.30;;
29370;SDS011;16357;52.188;7.838;2023-04-01T03:08:24;2.67;;;2.38;;
29370;SDS011;16357;52.188;7.838;2023-04-01T03:10:51;3.45;;;2.63;;
29370;SDS011;16357;52.188;7.838;2023-04-01T03:13:17;3.92;;;2.42;;
29370;SDS011;16357;52.188;7.838;2023-04-01T03:15:43;3.45;;;2.58;;
29370;SDS011;16357;52.188;7.838;2023-04-01T03:18:10;3.50;;;3.05;;
29370;SDS011;16357;52.188;7.838;2023-04-01T03:20:36;3.58;;;2.90;;
29370;SDS011;16357;52.188;7.838;2023-04-01T03:23:02;3.33;;;3.03;;
29370;SDS011;16357;52.188;7.838;2023-04-01T03:25:29;3.67;;;3.25;;
29370;SDS011;16357;52.188;7.838;2023-04-01T03:27:57;3.28;;;2.97;;
29370;SDS011;16357;52.188;7.838;2023-04-01T03:30:25;3.97;;;3.30;;
29370;SDS011;16357;52.188;7.838;2023-04-01T03:32:52;4.18;;;3.33;;
29370;SDS011;16357;52.188;7.838;2023-04-01T03:35:19;3.33;;;3.00;;
29370;SDS011;16357;52.188;7.838;2023-04-01T03:37:45;3.95;;;3.00;;
29370;SDS011;16357;52.188;7.838;2023-04-01T03:40:12;2.90;;;2.63;;
29370;SDS011;16357;52.188;7.838;2023-04-01T03:42:38;2.55;;;2.35;;
29370;SDS011;16357;52.188;7.838;2023-04-01T03:45:05;2.55;;;2.35;;
29370;SDS011;16357;52.188;7.838;2023-04-01T03:47:32;3.97;;;2.88;;
29370;SDS011;16357;52.188;7.838;2023-04-01T03:49:59;3.80;;;2.80;;
29370;SDS011;16357;52.188;7.838;2023-04-01T03:52:25;2.80;;;2.60;;
29370;SDS011;16357;52.188;7.838;2023-04-01T03:54:52;2.88;;;2.58;;
29370;SDS011;16357;52.188;7.838;2023-04-01T03:57:18;2.67;;;2.33;;
29370;SDS011;16357;52.188;7.838;2023-04-01T03:59:45;2.38;;;2.17;;
29370;SDS011;16357;52.188;7.838;2023-04-01T04:02:11;3.20;;;2.50;;
29370;SDS011;16357;52.188;7.838;2023-04-01T04:04:37;3.05;;;2.25;;
29370;SDS011;16357;52.188;7.838;2023-04-01T04:07:04;2.55;;;2.35;;
29370;SDS011;16357;52.188;7.838;2023-04-01T04:09:31;2.22;;;2.03;;
29370;SDS011;16357;52.188;7.838;2023-04-01T04:11:57;3.05;;;2.30;;
29370;SDS011;16357;52.188;7.838;2023-04-01T04:14:24;2.33;;;2.10;;
29370;SDS011;16357;52.188;7.838;2023-04-01T04:16:50;2.55;;;2.30;;
29370;SDS011;16357;52.188;7.838;2023-04-01T04:19:17;2.15;;;1.95;;
29370;SDS011;16357;52.188;7.838;2023-04-01T04:21:43;2.10;;;1.98;;
29370;SDS011;16357;52.188;7.838;2023-04-01T04:24:10;3.00;;;2.20;;
29370;SDS011;16357;52.188;7.838;2023-04-01T04:26:36;1.98;;;1.88;;
29370;SDS011;16357;52.188;7.838;2023-04-01T04:29:03;2.58;;;2.08;;
29370;SDS011;16357;52.188;7.838;2023-04-01T04:31:29;3.67;;;2.00;;
29370;SDS011;16357;52.188;7.838;2023-04-01T04:33:56;1.90;;;1.80;;
29370;SDS011;16357;52.188;7.838;2023-04-01T04:36:22;1.65;;;1.55;;
29370;SDS011;16357;52.188;7.838;2023-04-01T04:38:49;2.05;;;1.80;;
29370;SDS011;16357;52.188;7.838;2023-04-01T04:41:16;1.95;;;1.75;;
29370;SDS011;16357;52.188;7.838;2023-04-01T04:43:51;1.67;;;1.58;;
29370;SDS011;16357;52.188;7.838;2023-04-01T04:46:19;1.95;;;1.85;;
29370;SDS011;16357;52.188;7.838;2023-04-01T04:48:46;2.10;;;1.90;;
29370;SDS011;16357;52.188;7.838;2023-04-01T04:51:14;2.20;;;2.00;;
29370;SDS011;16357;52.188;7.838;2023-04-01T04:53:44;2.17;;;1.98;;
29370;SDS011;16357;52.188;7.838;2023-04-01T04:56:11;2.08;;;1.98;;
29370;SDS011;16357;52.188;7.838;2023-04-01T04:58:38;2.40;;;2.20;;
29370;SDS011;16357;52.188;7.838;2023-04-01T05:01:06;2.25;;;2.05;;
29370;SDS011;16357;52.188;7.838;2023-04-01T05:03:34;3.13;;;2.28;;
29370;SDS011;16357;52.188;7.838;2023-04-01T05:06:01;2.55;;;2.25;;
29370;SDS011;16357;52.188;7.838;2023-04-01T05:08:27;2.67;;;2.47;;
29370;SDS011;16357;52.188;7.838;2023-04-01T05:10:54;2.22;;;2.03;;
29370;SDS011;16357;52.188;7.838;2023-04-01T05:13:20;4.10;;;2.53;;
29370;SDS011;16357;52.188;7.838;2023-04-01T05:15:47;2.60;;;2.40;;
29370;SDS011;16357;52.188;7.838;2023-04-01T05:20:59;5.20;;;2.60;;
29370;SDS011;16357;52.188;7.838;2023-04-01T05:23:25;3.03;;;2.72;;
29370;SDS011;16357;52.188;7.838;2023-04-01T05:26:11;2.85;;;2.65;;
29370;SDS011;16357;52.188;7.838;2023-04-01T05:28:39;3.38;;;2.70;;
29370;SDS011;16357;52.188;7.838;2023-04-01T05:31:06;3.80;;;3.10;;
29370;SDS011;16357;52.188;7.838;2023-04-01T05:33:33;3.00;;;2.70;;
29370;SDS011;16357;52.188;7.838;2023-04-01T05:36:10;3.15;;;2.85;;
29370;SDS011;16357;52.188;7.838;2023-04-01T05:38:41;4.07;;;2.90;;
29370;SDS011;16357;52.188;7.838;2023-04-01T05:41:08;3.13;;;2.75;;
29370;SDS011;16357;52.188;7.838;2023-04-01T05:43:38;3.10;;;2.75;;
29370;SDS011;16357;52.188;7.838;2023-04-01T05:46:06;3.60;;;2.58;;
29370;SDS011;16357;52.188;7.838;2023-04-01T05:48:33;3.00;;;2.72;;
29370;SDS011;16357;52.188;7.838;2023-04-01T05:51:01;2.80;;;2.60;;
29370;SDS011;16357;52.188;7.838;2023-04-01T05:53:28;3.10;;;2.80;;
29370;SDS011;16357;52.188;7.838;2023-04-01T05:55:54;4.57;;;2.88;;
29370;SDS011;16357;52.188;7.838;2023-04-01T05:58:21;3.15;;;2.67;;
29370;SDS011;16357;52.188;7.838;2023-04-01T06:00:47;3.63;;;2.88;;
29370;SDS011;16357;52.188;7.838;2023-04-01T06:03:27;3.03;;;2.63;;
29370;SDS011;16357;52.188;7.838;2023-04-01T06:05:54;3.60;;;2.75;;
29370;SDS011;16357;52.188;7.838;2023-04-01T06:08:20;3.10;;;2.63;;
29370;SDS011;16357;52.188;7.838;2023-04-01T06:11:01;2.83;;;2.63;;
29370;SDS011;16357;52.188;7.838;2023-04-01T06:13:35;2.88;;;2.28;;
29370;SDS011;16357;52.188;7.838;2023-04-01T06:16:13;2.13;;;1.92;;
29370;SDS011;16357;52.188;7.838;2023-04-01T06:25:05;2.60;;;2.33;;
29370;SDS011;16357;52.188;7.838;2023-04-01T06:36:50;2.28;;;2.08;;
29370;SDS011;16357;52.188;7.838;2023-04-01T06:50:30;2.90;;;2.60;;
29370;SDS011;16357;52.188;7.838;2023-04-01T06:53:04;3.30;;;2.97;;
29370;SDS011;16357;52.188;7.838;2023-04-01T06:55:44;3.22;;;2.92;;
29370;SDS011;16357;52.188;7.838;2023-04-01T06:58:23;4.20;;;2.90;;
29370;SDS011;16357;52.188;7.838;2023-04-01T07:00:54;3.13;;;2.83;;
29370;SDS011;16357;52.188;7.838;2023-04-01T07:03:32;3.25;;;2.95;;
29370;SDS011;16357;52.188;7.838;2023-04-01T07:06:03;3.40;;;3.10;;
29370;SDS011;16357;52.188;7.838;2023-04-01T07:08:34;3.00;;;2.60;;
29370;SDS011;16357;52.188;7.838;2023-04-01T07:11:05;3.28;;;2.97;;
29370;SDS011;16357;52.188;7.838;2023-04-01T07:13:54;3.00;;;2.80;;
29370;SDS011;16357;52.188;7.838;2023-04-01T07:16:34;4.15;;;2.65;;
29370;SDS011;16357;52.188;7.838;2023-04-01T07:19:08;3.42;;;2.70;;
29370;SDS011;16357;52.188;7.838;2023-04-01T07:21:41;4.20;;;3.03;;
29370;SDS011;16357;52.188;7.838;2023-04-01T07:24:15;3.08;;;2.67;;
29370;SDS011;16357;52.188;7.838;2023-04-01T07:26:47;2.78;;;2.58;;
29370;SDS011;16357;52.188;7.838;2023-04-01T07:29:16;2.83;;;2.63;;
29370;SDS011;16357;52.188;7.838;2023-04-01T07:48:35;2.80;;;2.60;;
29370;SDS011;16357;52.188;7.838;2023-04-01T07:51:15;2.50;;;2.30;;
29370;SDS011;16357;52.188;7.838;2023-04-01T08:05:14;3.65;;;3.30;;
29370;SDS011;16357;52.188;7.838;2023-04-01T08:10:45;3.53;;;3.22;;
29370;SDS011;16357;52.188;7.838;2023-04-01T08:13:21;4.22;;;3.55;;
29370;SDS011;16357;52.188;7.838;2023-04-01T08:18:38;4.65;;;3.85;;
29370;SDS011;16357;52.188;7.838;2023-04-01T08:21:20;4.13;;;3.78;;
29370;SDS011;16357;52.188;7.838;2023-04-01T08:23:52;5.03;;;4.45;;
29370;SDS011;16357;52.188;7.838;2023-04-01T08:26:32;5.30;;;4.30;;
29370;SDS011;16357;52.188;7.838;2023-04-01T08:29:16;4.38;;;3.97;;
29370;SDS011;16357;52.188;7.838;2023-04-01T08:31:58;4.93;;;4.43;;
29370;SDS011;16357;52.188;7.838;2023-04-01T08:34:39;3.97;;;3.67;;
29370;SDS011;16357;52.188;7.838;2023-04-01T08:37:12;4.70;;;4.28;;
29370;SDS011;16357;52.188;7.838;2023-04-01T08:39:48;4.63;;;4.15;;
29370;SDS011;16357;52.188;7.838;2023-04-01T08:53:57;5.00;;;4.60;;
29370;SDS011;16357;52.188;7.838;2023-04-01T08:59:16;4.88;;;4.47;;
29370;SDS011;16357;52.188;7.838;2023-04-01T09:04:26;5.32;;;4.82;;
29370;SDS011;16357;52.188;7.838;2023-04-01T09:07:11;5.20;;;4.70;;
29370;SDS011;16357;52.188;7.838;2023-04-01T09:23:35;4.55;;;4.15;;
29370;SDS011;16357;52.188;7.838;2023-04-01T09:31:26;3.00;;;2.80;;
29370;SDS011;16357;52.188;7.838;2023-04-01T09:43:46;2.63;;;2.42;;
29370;SDS011;16357;52.188;7.838;2023-04-01T09:46:10;2.45;;;2.25;;
29370;SDS011;16357;52.188;7.838;2023-04-01T09:48:51;2.95;;;2.40;;
29370;SDS011;16357;52.188;7.838;2023-04-01T09:54:32;2.78;;;2.58;;
29370;SDS011;16357;52.188;7.838;2023-04-01T09:57:15;3.10;;;2.90;;
29370;SDS011;16357;52.188;7.838;2023-04-01T10:20:31;2.63;;;2.42;;
29370;SDS011;16357;52.188;7.838;2023-04-01T10:40:35;3.38;;;3.08;;
29370;SDS011;16357;52.188;7.838;2023-04-01T10:43:13;3.45;;;3.15;;
29370;SDS011;16357;52.188;7.838;2023-04-01T10:46:10;2.63;;;2.42;;
29370;SDS011;16357;52.188;7.838;2023-04-01T10:48:52;1.92;;;1.83;;
29370;SDS011;16357;52.188;7.838;2023-04-01T10:51:41;3.40;;;1.70;;
29370;SDS011;16357;52.188;7.838;2023-04-01T10:56:56;1.98;;;1.70;;
29370;SDS011;16357;52.188;7.838;2023-04-01T10:59:36;2.40;;;2.20;;
29370;SDS011;16357;52.188;7.838;2023-04-01T11:07:54;2.67;;;2.45;;
29370;SDS011;16357;52.188;7.838;2023-04-01T11:25:06;2.65;;;2.45;;
29370;SDS011;16357;52.188;7.838;2023-04-01T11:27:43;2.78;;;2.58;;
29370;SDS011;16357;52.188;7.838;2023-04-01T11:30:44;3.47;;;3.17;;
29370;SDS011;16357;52.188;7.838;2023-04-01T11:33:19;3.30;;;3.00;;
29370;SDS011;16357;52.188;7.838;2023-04-01T11:36:16;3.10;;;2.90;;
29370;SDS011;16357;52.188;7.838;2023-04-01T11:44:26;2.83;;;2.63;;
29370;SDS011;16357;52.188;7.838;2023-04-01T11:55:53;3.03;;;2.83;;
29370;SDS011;16357;52.188;7.838;2023-04-01T11:58:23;3.78;;;3.00;;
29370;SDS011;16357;52.188;7.838;2023-04-01T12:01:20;3.22;;;2.92;;
29370;SDS011;16357;52.188;7.838;2023-04-01T12:07:27;3.45;;;3.10;;
29370;SDS011;16357;52.188;7.838;2023-04-01T12:10:20;3.58;;;3.28;;
29370;SDS011;16357;52.188;7.838;2023-04-01T12:13:12;3.22;;;3.03;;
29370;SDS011;16357;52.188;7.838;2023-04-01T12:15:50;3.50;;;3.20;;
29370;SDS011;16357;52.188;7.838;2023-04-01T12:18:49;4.00;;;3.60;;
29370;SDS011;16357;52.188;7.838;2023-04-01T12:21:27;3.67;;;3.38;;
29370;SDS011;16357;52.188;7.838;2023-04-01T12:29:38;3.85;;;3.55;;
29370;SDS011;16357;52.188;7.838;2023-04-01T13:54:22;3.17;;;2.88;;
29370;SDS011;16357;52.188;7.838;2023-04-01T14:02:53;2.97;;;2.67;;
29370;SDS011;16357;52.188;7.838;2023-04-01T14:11:13;2.50;;;2.13;;
29370;SDS011;16357;52.188;7.838;2023-04-01T14:25:30;2.47;;;1.88;;
29370;SDS011;16357;52.188;7.838;2023-04-01T14:28:36;2.13;;;1.83;;
29370;SDS011;16357;52.188;7.838;2023-04-01T14:31:15;1.90;;;1.50;;
29370;SDS011;16357;52.188;7.838;2023-04-01T14:42:18;2.60;;;1.83;;
29370;SDS011;16357;52.188;7.838;2023-04-01T14:50:55;1.60;;;1.50;;
29370;SDS011;16357;52.188;7.838;2023-04-01T14:53:29;2.40;;;1.77;;
29370;SDS011;16357;52.188;7.838;2023-04-01T14:56:00;1.58;;;1.48;;
29370;SDS011;16357;52.188;7.838;2023-04-01T14:58:40;1.85;;;1.70;;
29370;SDS011;16357;52.188;7.838;2023-04-01T15:20:15;1.23;;;1.10;;
29370;SDS011;16357;52.188;7.838;2023-04-01T15:29:15;1.92;;;1.00;;
29370;SDS011;16357;52.188;7.838;2023-04-01T15:34:41;1.25;;;1.02;;
29370;SDS011;16357;52.188;7.838;2023-04-01T15:37:37;1.75;;;1.00;;
29370;SDS011;16357;52.188;7.838;2023-04-01T15:45:43;1.48;;;1.10;;
29370;SDS011;16357;52.188;7.838;2023-04-01T15:51:11;1.25;;;1.15;;
29370;SDS011;16357;52.188;7.838;2023-04-01T15:54:00;2.47;;;1.60;;
29370;SDS011;16357;52.188;7.838;2023-04-01T15:56:48;1.25;;;1.15;;
29370;SDS011;16357;52.188;7.838;2023-04-01T16:02:13;1.30;;;1.20;;
29370;SDS011;16357;52.188;7.838;2023-04-01T16:04:49;2.70;;;2.28;;
29370;SDS011;16357;52.188;7.838;2023-04-01T16:15:53;1.40;;;1.00;;
29370;SDS011;16357;52.188;7.838;2023-04-01T16:28:09;1.10;;;0.70;;
29370;SDS011;16357;52.188;7.838;2023-04-01T16:33:37;0.93;;;0.70;;
29370;SDS011;16357;52.188;7.838;2023-04-01T16:36:10;1.13;;;0.82;;
29370;SDS011;16357;52.188;7.838;2023-04-01T16:38:43;0.90;;;0.80;;
29370;SDS011;16357;52.188;7.838;2023-04-01T16:41:20;1.08;;;0.98;;
29370;SDS011;16357;52.188;7.838;2023-04-01T16:44:20;0.82;;;0.80;;
29370;SDS011;16357;52.188;7.838;2023-04-01T16:49:32;1.10;;;0.90;;
29370;SDS011;16357;52.188;7.838;2023-04-01T16:52:12;1.00;;;0.90;;
29370;SDS011;16357;52.188;7.838;2023-04-01T16:57:25;0.88;;;0.60;;
29370;SDS011;16357;52.188;7.838;2023-04-01T17:00:15;0.88;;;0.88;;
29370;SDS011;16357;52.188;7.838;2023-04-01T17:05:37;1.48;;;1.15;;
29370;SDS011;16357;52.188;7.838;2023-04-01T17:08:24;1.17;;;1.08;;
29370;SDS011;16357;52.188;7.838;2023-04-01T17:13:49;1.10;;;1.00;;
29370;SDS011;16357;52.188;7.838;2023-04-01T17:16:40;1.00;;;0.90;;
29370;SDS011;16357;52.188;7.838;2023-04-01T17:22:03;0.80;;;0.80;;
29370;SDS011;16357;52.188;7.838;2023-04-01T17:27:14;1.08;;;0.98;;
29370;SDS011;16357;52.188;7.838;2023-04-01T17:30:05;1.30;;;1.20;;
29370;SDS011;16357;52.188;7.838;2023-04-01T17:41:05;1.15;;;1.10;;
29370;SDS011;16357;52.188;7.838;2023-04-01T17:46:31;1.70;;;1.50;;
29370;SDS011;16357;52.188;7.838;2023-04-01T17:49:49;1.73;;;1.20;;
29370;SDS011;16357;52.188;7.838;2023-04-01T17:52:32;1.35;;;1.20;;
29370;SDS011;16357;52.188;7.838;2023-04-01T17:55:27;1.65;;;1.52;;
29370;SDS011;16357;52.188;7.838;2023-04-01T17:58:21;2.45;;;1.80;;
29370;SDS011;16357;52.188;7.838;2023-04-01T18:01:30;3.47;;;2.25;;
29370;SDS011;16357;52.188;7.838;2023-04-01T18:11:25;2.50;;;2.30;;
29370;SDS011;16357;52.188;7.838;2023-04-01T18:19:57;1.23;;;1.00;;
29370;SDS011;16357;52.188;7.838;2023-04-01T18:22:36;1.23;;;0.90;;
29370;SDS011;16357;52.188;7.838;2023-04-01T18:28:16;1.20;;;1.10;;
29370;SDS011;16357;52.188;7.838;2023-04-01T18:31:17;1.20;;;1.10;;
29370;SDS011;16357;52.188;7.838;2023-04-01T18:36:21;1.27;;;1.05;;
29370;SDS011;16357;52.188;7.838;2023-04-01T18:39:03;1.00;;;0.90;;
29370;SDS011;16357;52.188;7.838;2023-04-01T18:44:38;1.67;;;1.42;;
29370;SDS011;16357;52.188;7.838;2023-04-01T18:49:52;1.38;;;1.27;;
29370;SDS011;16357;52.188;7.838;2023-04-01T18:57:27;2.88;;;2.20;;
29370;SDS011;16357;52.188;7.838;2023-04-01T19:00:08;5.05;;;2.90;;
29370;SDS011;16357;52.188;7.838;2023-04-01T19:02:48;5.25;;;3.10;;
29370;SDS011;16357;52.188;7.838;2023-04-01T19:05:36;4.32;;;1.65;;
29370;SDS011;16357;52.188;7.838;2023-04-01T19:08:17;1.98;;;1.70;;
29370;SDS011;16357;52.188;7.838;2023-04-01T19:10:57;2.03;;;1.75;;
29370;SDS011;16357;52.188;7.838;2023-04-01T19:13:31;2.33;;;1.80;;
29370;SDS011;16357;52.188;7.838;2023-04-01T19:16:19;1.92;;;1.50;;
29370;SDS011;16357;52.188;7.838;2023-04-01T19:19:54;1.48;;;1.35;;
29370;SDS011;16357;52.188;7.838;2023-04-01T19:22:12;1.55;;;1.23;;
29370;SDS011;16357;52.188;7.838;2023-04-01T19:27:48;1.92;;;1.60;;
29370;SDS011;16357;52.188;7.838;2023-04-01T19:36:00;1.40;;;1.30;;
29370;SDS011;16357;52.188;7.838;2023-04-01T19:38:39;1.67;;;1.58;;
29370;SDS011;16357;52.188;7.838;2023-04-01T19:46:43;1.90;;;1.58;;
29370;SDS011;16357;52.188;7.838;2023-04-01T19:52:36;2.13;;;1.63;;
29370;SDS011;16357;52.188;7.838;2023-04-01T20:01:00;1.80;;;1.35;;
29370;SDS011;16357;52.188;7.838;2023-04-01T20:25:32;1.70;;;1.60;;
29370;SDS011;16357;52.188;7.838;2023-04-01T20:38:51;1.60;;;1.20;;
29370;SDS011;16357;52.188;7.838;2023-04-01T20:44:13;1.73;;;1.45;;
29370;SDS011;16357;52.188;7.838;2023-04-01T20:55:08;2.63;;;1.60;;
29370;SDS011;16357;52.188;7.838;2023-04-01T21:06:27;1.30;;;1.20;;
29370;SDS011;16357;52.188;7.838;2023-04-01T21:11:51;1.55;;;1.25;;
29370;SDS011;16357;52.188;7.838;2023-04-01T21:25:39;1.40;;;1.30;;
29370;SDS011;16357;52.188;7.838;2023-04-01T21:31:00;1.58;;;1.48;;
29370;SDS011;16357;52.188;7.838;2023-04-01T21:39:33;1.45;;;1.35;;
29370;SDS011;16357;52.188;7.838;2023-04-01T22:04:36;2.38;;;1.73;;
29370;SDS011;16357;52.188;7.838;2023-04-01T22:07:18;1.58;;;1.48;;
29370;SDS011;16357;52.188;7.838;2023-04-01T22:09:58;2.47;;;1.92;;
29370;SDS011;16357;52.188;7.838;2023-04-01T22:15:29;1.92;;;1.58;;
29370;SDS011;16357;52.188;7.838;2023-04-01T22:18:31;2.35;;;1.88;;
29370;SDS011;16357;52.188;7.838;2023-04-01T22:27:08;2.20;;;1.88;;
29370;SDS011;16357;52.188;7.838;2023-04-01T22:30:05;2.70;;;2.25;;
29370;SDS011;16357;52.188;7.838;2023-04-01T22:32:44;2.10;;;1.90;;
29370;SDS011;16357;52.188;7.838;2023-04-01T22:41:19;2.78;;;1.98;;
29370;SDS011;16357;52.188;7.838;2023-04-01T22:44:13;2.53;;;2.03;;
29370;SDS011;16357;52.188;7.838;2023-04-01T22:49:50;2.05;;;1.85;;
29370;SDS011;16357;52.188;7.838;2023-04-01T22:52:30;3.38;;;2.45;;
29370;SDS011;16357;52.188;7.838;2023-04-01T22:55:04;2.40;;;1.80;;
29370;SDS011;16357;52.188;7.838;2023-04-01T22:57:40;3.50;;;1.83;;
29370;SDS011;16357;52.188;7.838;2023-04-01T23:00:13;2.72;;;2.00;;
29370;SDS011;16357;52.188;7.838;2023-04-01T23:02:47;2.35;;;2.10;;
29370;SDS011;16357;52.188;7.838;2023-04-01T23:05:27;3.47;;;2.15;;
29370;SDS011;16357;52.188;7.838;2023-04-01T23:07:59;3.22;;;2.25;;
29370;SDS011;16357;52.188;7.838;2023-04-01T23:10:58;2.22;;;1.95;;
29370;SDS011;16357;52.188;7.838;2023-04-01T23:13:34;4.70;;;2.03;;
29370;SDS011;16357;52.188;7.838;2023-04-01T23:16:05;2.65;;;2.40;;
29370;SDS011;16357;52.188;7.838;2023-04-01T23:18:44;3.63;;;2.45;;
29370;SDS011;16357;52.188;7.838;2023-04-01T23:23:57;4.40;;;2.45;;
29370;SDS011;16357;52.188;7.838;2023-04-01T23:29:15;5.32;;;3.38;;
29370;SDS011;16357;52.188;7.838;2023-04-01T23:31:47;4.15;;;2.85;;
29370;SDS011;16357;52.188;7.838;2023-04-01T23:34:30;4.05;;;2.95;;
29370;SDS011;16357;52.188;7.838;2023-04-01T23:37:19;3.67;;;2.45;;
29370;SDS011;16357;52.188;7.838;2023-04-01T23:39:46;3.88;;;2.78;;
29370;SDS011;16357;52.188;7.838;2023-04-01T23:42:20;3.47;;;2.65;;
29370;SDS011;16357;52.188;7.838;2023-04-01T23:44:55;4.03;;;3.05;;
29370;SDS011;16357;52.188;7.838;2023-04-01T23:47:24;4.57;;;2.90;;
29370;SDS011;16357;52.188;7.838;2023-04-01T23:49:56;3.20;;;2.47;;
29370;SDS011;16357;52.188;7.838;2023-04-01T23:52:35;3.35;;;2.67;;
29370;SDS011;16357;52.188;7.838;2023-04-01T23:55:22;4.78;;;3.25;;
